Time;durP1;ratioP1;P1;durP2;ratioP2;P2;SDS_P1;SDS_P2;PMS_P1;PMS_P2;Temp;Humidity;BMP_temperature;BMP_pressure;BME280_temperature;BME280_humidity;BME280_pressure;Samples;Min_cycle;Max_cycle;Signal;HPM_P1;HPM_P2
2021/09/03 00:01:25;;;;;;;15.65;5.10;;;;;;;;;;5053841;28;20128;-76
2021/09/03 00:03:50;;;;;;;18.63;5.53;;;;;;;;;;5053538;28;20040;-76
2021/09/03 00:06:15;;;;;;;17.17;6.43;;;;;;;;;;5053876;28;20047;-76
2021/09/03 00:08:40;;;;;;;16.38;5.32;;;;;;;;;;5053886;28;20025;-76
2021/09/03 00:11:06;;;;;;;19.85;6.63;;;;;;;;;;5053368;28;20025;-77
2021/09/03 00:13:31;;;;;;;23.88;5.78;;;;;;;;;;5053608;28;20364;-76
2021/09/03 00:15:56;;;;;;;17.15;6.13;;;;;;;;;;5053056;28;20468;-76
2021/09/03 00:18:22;;;;;;;14.10;4.90;;;;;;;;;;5053492;28;20036;-75
2021/09/03 00:20:47;;;;;;;16.52;5.35;;;;;;;;;;5053311;28;20017;-77
2021/09/03 00:23:12;;;;;;;17.52;5.70;;;;;;;;;;5053270;28;20028;-76
2021/09/03 00:25:37;;;;;;;18.85;6.22;;;;;;;;;;5053262;28;20057;-75
2021/09/03 00:28:03;;;;;;;18.15;5.53;;;;;;;;;;5053302;28;20021;-75
2021/09/03 00:30:28;;;;;;;15.07;6.40;;;;;;;;;;5053336;28;20112;-75
2021/09/03 00:32:53;;;;;;;16.38;5.32;;;;;;;;;;5053044;28;20048;-75
2021/09/03 00:35:19;;;;;;;21.92;4.97;;;;;;;;;;5053136;28;20017;-75
2021/09/03 00:37:44;;;;;;;23.33;6.32;;;;;;;;;;5050954;28;20484;-75
2021/09/03 00:40:09;;;;;;;19.63;5.72;;;;;;;;;;5051007;28;20126;-76
2021/09/03 00:42:35;;;;;;;13.60;5.60;;;;;;;;;;5050712;28;20025;-76
2021/09/03 00:45:00;;;;;;;17.52;5.75;;;;;;;;;;5052287;28;20025;-76
2021/09/03 00:47:26;;;;;;;18.98;6.03;;;;;;;;;;5051815;28;20033;-77
2021/09/03 00:49:51;;;;;;;16.50;5.70;;;;;;;;;;5052059;28;20025;-77
2021/09/03 00:52:16;;;;;;;16.00;5.22;;;;;;;;;;5052133;28;20039;-78
2021/09/03 00:54:42;;;;;;;21.23;6.13;;;;;;;;;;5052677;28;20036;-77
2021/09/03 00:57:07;;;;;;;16.20;5.78;;;;;;;;;;5053009;28;20025;-75
2021/09/03 00:59:33;;;;;;;18.90;6.22;;;;;;;;;;5052661;28;20078;-76
2021/09/03 01:01:58;;;;;;;18.00;5.78;;;;;;;;;;5052415;28;20111;-77
2021/09/03 01:04:23;;;;;;;15.13;6.35;;;;;;;;;;5052667;28;20021;-75
2021/09/03 01:06:49;;;;;;;27.17;6.85;;;;;;;;;;5052546;28;20025;-76
2021/09/03 01:09:14;;;;;;;21.60;6.95;;;;;;;;;;5052680;28;20067;-77
2021/09/03 01:11:39;;;;;;;21.20;6.10;;;;;;;;;;5052628;28;20021;-75
2021/09/03 01:14:05;;;;;;;23.63;6.30;;;;;;;;;;5052657;28;20033;-75
2021/09/03 01:16:30;;;;;;;20.48;5.90;;;;;;;;;;5052811;28;20033;-76
2021/09/03 01:18:56;;;;;;;22.50;6.10;;;;;;;;;;5052422;28;20039;-76
2021/09/03 01:21:22;;;;;;;17.60;6.32;;;;;;;;;;5052484;28;20112;-76
2021/09/03 01:23:47;;;;;;;21.10;6.85;;;;;;;;;;5052425;28;20546;-76
2021/09/03 01:26:12;;;;;;;23.35;6.95;;;;;;;;;;5052261;28;20025;-76
2021/09/03 01:28:38;;;;;;;23.10;6.18;;;;;;;;;;5052435;28;20065;-77
2021/09/03 01:31:03;;;;;;;21.48;6.80;;;;;;;;;;5052214;28;20048;-77
2021/09/03 01:33:29;;;;;;;18.73;6.18;;;;;;;;;;5052767;28;20052;-76
2021/09/03 01:35:54;;;;;;;29.92;6.32;;;;;;;;;;5051125;28;20040;-75
2021/09/03 01:38:19;;;;;;;14.25;6.93;;;;;;;;;;5052485;28;20501;-76
2021/09/03 01:40:45;;;;;;;16.65;6.25;;;;;;;;;;5052245;28;20031;-76
2021/09/03 01:43:10;;;;;;;14.40;6.07;;;;;;;;;;5052354;28;20029;-77
2021/09/03 01:45:35;;;;;;;18.20;5.50;;;;;;;;;;5052154;28;20100;-78
2021/09/03 01:48:01;;;;;;;20.67;6.78;;;;;;;;;;5052178;28;20346;-76
2021/09/03 01:50:26;;;;;;;21.10;6.15;;;;;;;;;;5052381;28;20057;-76
2021/09/03 01:52:51;;;;;;;20.80;6.10;;;;;;;;;;5052081;28;20056;-76
2021/09/03 01:55:16;;;;;;;17.13;6.50;;;;;;;;;;5055507;28;20017;-76
2021/09/03 01:57:42;;;;;;;20.08;5.97;;;;;;;;;;5056471;28;20029;-75
2021/09/03 02:00:07;;;;;;;22.77;6.32;;;;;;;;;;5056013;28;20065;-76
2021/09/03 02:02:33;;;;;;;18.67;6.30;;;;;;;;;;5055695;28;20384;-75
2021/09/03 02:04:58;;;;;;;20.50;6.13;;;;;;;;;;5055970;28;20036;-75
2021/09/03 02:07:23;;;;;;;22.45;6.45;;;;;;;;;;5056038;28;20116;-76
2021/09/03 02:09:49;;;;;;;24.08;6.22;;;;;;;;;;5056187;28;20017;-76
2021/09/03 02:12:14;;;;;;;16.98;5.90;;;;;;;;;;5055736;28;20041;-75
2021/09/03 02:14:40;;;;;;;21.85;5.88;;;;;;;;;;5056336;28;20481;-75
2021/09/03 02:17:05;;;;;;;17.48;6.43;;;;;;;;;;5055710;28;20021;-76
2021/09/03 02:19:31;;;;;;;17.75;6.95;;;;;;;;;;5056002;28;20032;-76
2021/09/03 02:21:56;;;;;;;21.52;5.80;;;;;;;;;;5055549;28;20483;-76
2021/09/03 02:24:21;;;;;;;25.10;7.05;;;;;;;;;;5055692;28;20021;-75
2021/09/03 02:26:46;;;;;;;17.95;5.93;;;;;;;;;;5055649;28;20040;-76
2021/09/03 02:29:12;;;;;;;20.50;6.68;;;;;;;;;;5056053;28;20124;-76
2021/09/03 02:31:37;;;;;;;18.95;6.78;;;;;;;;;;5055323;28;20075;-75
2021/09/03 02:34:03;;;;;;;31.40;7.75;;;;;;;;;;5055280;28;20048;-75
2021/09/03 02:36:28;;;;;;;18.73;6.57;;;;;;;;;;5055326;28;20076;-75
2021/09/03 02:38:53;;;;;;;15.98;6.18;;;;;;;;;;5055326;28;20016;-75
2021/09/03 02:41:18;;;;;;;22.05;7.45;;;;;;;;;;5055258;28;20028;-76
2021/09/03 02:43:44;;;;;;;15.48;6.15;;;;;;;;;;5055586;28;20144;-76
2021/09/03 02:46:09;;;;;;;17.15;6.53;;;;;;;;;;5055293;28;20013;-76
2021/09/03 02:48:34;;;;;;;23.60;7.80;;;;;;;;;;5055305;28;20541;-76
2021/09/03 02:50:59;;;;;;;21.55;7.05;;;;;;;;;;5054716;28;20036;-75
2021/09/03 02:53:25;;;;;;;20.83;7.25;;;;;;;;;;5054857;28;20037;-75
2021/09/03 02:55:50;;;;;;;28.92;7.03;;;;;;;;;;5055168;28;20111;-77
2021/09/03 02:58:15;;;;;;;22.75;6.82;;;;;;;;;;5055610;28;20791;-76
2021/09/03 03:00:41;;;;;;;17.92;7.25;;;;;;;;;;5055191;28;20070;-75
2021/09/03 03:03:07;;;;;;;21.77;6.88;;;;;;;;;;5055001;28;20075;-76
2021/09/03 03:05:33;;;;;;;20.27;6.82;;;;;;;;;;5054322;28;20033;-77
2021/09/03 03:07:58;;;;;;;23.20;7.15;;;;;;;;;;5054915;28;20017;-76
2021/09/03 03:10:23;;;;;;;17.30;7.18;;;;;;;;;;5054777;28;20033;-76
2021/09/03 03:12:53;;;;;;;22.00;7.10;;;;;;;;;;5054957;28;20424;-75
2021/09/03 03:15:18;;;;;;;15.43;6.60;;;;;;;;;;5054972;28;20024;-75
2021/09/03 03:17:43;;;;;;;21.98;7.65;;;;;;;;;;5055219;28;20526;-76
2021/09/03 03:20:10;;;;;;;24.23;6.97;;;;;;;;;;5054931;28;20029;-75
2021/09/03 03:22:35;;;;;;;28.98;8.07;;;;;;;;;;5055001;28;20021;-75
2021/09/03 03:25:01;;;;;;;22.65;6.70;;;;;;;;;;5054655;28;20469;-75
2021/09/03 03:27:26;;;;;;;20.63;8.65;;;;;;;;;;5054067;28;20051;-76
2021/09/03 03:29:51;;;;;;;28.67;7.35;;;;;;;;;;5054582;28;20024;-75
2021/09/03 03:32:17;;;;;;;25.77;7.43;;;;;;;;;;5054735;28;20548;-75
2021/09/03 03:34:42;;;;;;;24.92;6.93;;;;;;;;;;5054986;28;20037;-74
2021/09/03 03:37:07;;;;;;;16.58;6.65;;;;;;;;;;5054468;28;20021;-76
2021/09/03 03:39:32;;;;;;;24.38;8.00;;;;;;;;;;5054456;28;20060;-76
2021/09/03 03:41:58;;;;;;;22.33;7.47;;;;;;;;;;5054516;28;20062;-76
2021/09/03 03:44:23;;;;;;;21.73;8.10;;;;;;;;;;5054451;28;20024;-76
2021/09/03 03:46:48;;;;;;;23.52;7.55;;;;;;;;;;5053940;28;20039;-76
2021/09/03 03:49:13;;;;;;;25.00;7.63;;;;;;;;;;5054343;28;20103;-75
2021/09/03 03:51:39;;;;;;;23.35;8.02;;;;;;;;;;5053966;28;20047;-75
2021/09/03 03:54:04;;;;;;;27.30;8.50;;;;;;;;;;5053999;28;20119;-76
2021/09/03 03:56:30;;;;;;;25.90;7.97;;;;;;;;;;5054075;28;20059;-76
2021/09/03 03:58:55;;;;;;;25.65;8.18;;;;;;;;;;5054264;28;20025;-75
2021/09/03 04:01:20;;;;;;;22.58;7.25;;;;;;;;;;5054031;28;20059;-75
2021/09/03 04:03:46;;;;;;;27.42;8.75;;;;;;;;;;5054634;28;20028;-75
2021/09/03 04:06:11;;;;;;;22.30;7.70;;;;;;;;;;5053971;28;20036;-77
2021/09/03 04:08:36;;;;;;;20.88;7.70;;;;;;;;;;5053824;28;20450;-76
2021/09/03 04:11:02;;;;;;;28.00;8.43;;;;;;;;;;5054000;28;20198;-76
2021/09/03 04:13:27;;;;;;;24.40;7.88;;;;;;;;;;5053719;28;20389;-76
2021/09/03 04:15:52;;;;;;;21.58;8.63;;;;;;;;;;5053567;28;20115;-75
2021/09/03 04:18:18;;;;;;;30.05;7.97;;;;;;;;;;5053070;28;20029;-75
2021/09/03 04:20:43;;;;;;;30.67;8.32;;;;;;;;;;5053641;28;20362;-75
2021/09/03 04:23:09;;;;;;;20.67;7.57;;;;;;;;;;5053562;28;20040;-76
2021/09/03 04:25:34;;;;;;;26.63;8.32;;;;;;;;;;5053702;28;20491;-75
2021/09/03 04:27:59;;;;;;;22.83;8.73;;;;;;;;;;5053726;28;20492;-76
2021/09/03 04:30:25;;;;;;;25.15;7.57;;;;;;;;;;5052600;28;20025;-76
2021/09/03 04:32:50;;;;;;;32.25;10.50;;;;;;;;;;5053232;28;20052;-77
2021/09/03 04:35:15;;;;;;;25.52;7.75;;;;;;;;;;5053047;28;20021;-75
2021/09/03 04:37:44;;;;;;;26.00;8.70;;;;;;;;;;5053035;28;20048;-76
2021/09/03 04:40:10;;;;;;;19.05;7.35;;;;;;;;;;5053281;28;20114;-75
2021/09/03 04:42:35;;;;;;;29.05;8.05;;;;;;;;;;5053196;28;20049;-75
2021/09/03 04:45:01;;;;;;;25.75;8.68;;;;;;;;;;5053291;28;20465;-76
2021/09/03 04:47:26;;;;;;;26.88;9.13;;;;;;;;;;5052798;28;20083;-75
2021/09/03 04:49:51;;;;;;;30.10;9.68;;;;;;;;;;5052945;28;20025;-75
2021/09/03 04:52:16;;;;;;;26.23;8.70;;;;;;;;;;5052827;28;20037;-75
2021/09/03 04:54:42;;;;;;;25.40;8.38;;;;;;;;;;5053013;28;20517;-76
2021/09/03 04:57:07;;;;;;;31.63;8.52;;;;;;;;;;5052821;28;20021;-78
2021/09/03 04:59:34;;;;;;;36.42;9.38;;;;;;;;;;5052921;28;20389;-75
2021/09/03 05:01:59;;;;;;;32.10;10.25;;;;;;;;;;5052790;28;20044;-76
2021/09/03 05:04:24;;;;;;;29.35;8.65;;;;;;;;;;5052766;28;20104;-75
2021/09/03 05:06:50;;;;;;;31.27;8.73;;;;;;;;;;5052568;28;20025;-76
2021/09/03 05:09:15;;;;;;;26.45;9.68;;;;;;;;;;5052944;28;20545;-75
2021/09/03 05:11:40;;;;;;;28.92;9.02;;;;;;;;;;5052574;28;20024;-75
2021/09/03 05:14:05;;;;;;;37.80;10.02;;;;;;;;;;5052800;28;20037;-76
2021/09/03 05:16:31;;;;;;;25.48;8.80;;;;;;;;;;5052482;28;20476;-76
2021/09/03 05:18:56;;;;;;;22.42;8.40;;;;;;;;;;5052401;28;20028;-75
2021/09/03 05:21:21;;;;;;;31.38;9.38;;;;;;;;;;5052567;28;20040;-75
2021/09/03 05:23:47;;;;;;;29.42;9.32;;;;;;;;;;5052818;28;20028;-76
2021/09/03 05:26:12;;;;;;;25.83;9.27;;;;;;;;;;5052179;28;20362;-76
2021/09/03 05:28:38;;;;;;;25.52;8.95;;;;;;;;;;5052082;28;20036;-75
2021/09/03 05:31:04;;;;;;;23.17;9.45;;;;;;;;;;5052451;28;20037;-76
2021/09/03 05:33:29;;;;;;;29.15;9.63;;;;;;;;;;5052041;28;20555;-76
2021/09/03 05:35:54;;;;;;;31.77;9.60;;;;;;;;;;5052293;28;20065;-75
2021/09/03 05:38:20;;;;;;;22.75;8.05;;;;;;;;;;5052152;28;20056;-76
2021/09/03 05:40:45;;;;;;;26.15;9.13;;;;;;;;;;5052323;28;20028;-75
2021/09/03 05:43:10;;;;;;;32.75;9.68;;;;;;;;;;5052406;28;20047;-76
2021/09/03 05:45:36;;;;;;;30.08;8.70;;;;;;;;;;5051951;28;20036;-75
2021/09/03 05:48:02;;;;;;;28.67;8.45;;;;;;;;;;5052183;28;20013;-77
2021/09/03 05:50:28;;;;;;;23.00;9.38;;;;;;;;;;5052141;28;20029;-76
2021/09/03 05:52:54;;;;;;;29.00;8.85;;;;;;;;;;5051999;28;20482;-75
2021/09/03 05:55:19;;;;;;;28.63;9.25;;;;;;;;;;5051854;28;20032;-76
2021/09/03 05:57:44;;;;;;;28.98;8.98;;;;;;;;;;5052109;28;20029;-75
2021/09/03 06:00:10;;;;;;;25.60;8.48;;;;;;;;;;5051988;28;20466;-75
2021/09/03 06:02:36;;;;;;;20.67;8.10;;;;;;;;;;5051902;28;20025;-75
2021/09/03 06:05:01;;;;;;;22.13;7.95;;;;;;;;;;5052233;28;20033;-75
2021/09/03 06:07:26;;;;;;;21.88;8.40;;;;;;;;;;5051791;28;20087;-76
2021/09/03 06:09:52;;;;;;;27.85;10.75;;;;;;;;;;5052181;28;20056;-76
2021/09/03 06:12:17;;;;;;;23.20;8.63;;;;;;;;;;5052006;28;20037;-75
2021/09/03 06:14:42;;;;;;;23.45;8.45;;;;;;;;;;5051987;28;20033;-76
2021/09/03 06:17:07;;;;;;;25.40;8.75;;;;;;;;;;5051986;28;20074;-76
2021/09/03 06:19:33;;;;;;;20.65;8.20;;;;;;;;;;5052058;28;20036;-75
2021/09/03 06:22:00;;;;;;;32.03;9.13;;;;;;;;;;5051900;28;20039;-76
2021/09/03 06:26:56;;;;;;;22.10;7.75;;;;;;;;;;5051886;28;20120;-75
2021/09/03 06:32:07;;;;;;;28.50;8.60;;;;;;;;;;5051098;28;20110;-76
2021/09/03 06:34:32;;;;;;;20.48;7.68;;;;;;;;;;5051745;28;20033;-75
2021/09/03 06:36:57;;;;;;;20.20;8.50;;;;;;;;;;5051805;28;20369;-73
2021/09/03 06:39:23;;;;;;;25.63;9.25;;;;;;;;;;5052085;28;20413;-75
2021/09/03 06:41:48;;;;;;;20.67;8.35;;;;;;;;;;5054981;28;20037;-75
2021/09/03 06:44:13;;;;;;;23.85;8.45;;;;;;;;;;5054060;28;20025;-76
2021/09/03 06:46:38;;;;;;;27.92;8.77;;;;;;;;;;5055149;28;20020;-76
2021/09/03 06:49:04;;;;;;;25.38;8.38;;;;;;;;;;5055366;28;20380;-75
2021/09/03 06:51:29;;;;;;;21.00;7.88;;;;;;;;;;5054853;28;20025;-75
2021/09/03 06:53:54;;;;;;;25.67;9.85;;;;;;;;;;5055319;28;20033;-76
2021/09/03 06:56:19;;;;;;;24.40;9.52;;;;;;;;;;5055002;28;20033;-76
2021/09/03 06:58:45;;;;;;;25.58;7.63;;;;;;;;;;5055330;28;20390;-75
2021/09/03 07:01:10;;;;;;;28.42;10.00;;;;;;;;;;5055109;28;20059;-76
2021/09/03 07:03:35;;;;;;;26.52;8.43;;;;;;;;;;5055024;28;20039;-76
2021/09/03 07:06:00;;;;;;;26.17;8.63;;;;;;;;;;5055413;28;20024;-74
2021/09/03 07:08:26;;;;;;;26.92;8.52;;;;;;;;;;5055184;28;20101;-76
2021/09/03 07:10:51;;;;;;;32.08;10.85;;;;;;;;;;5055159;28;20037;-76
2021/09/03 07:13:16;;;;;;;23.67;9.05;;;;;;;;;;5055033;28;20149;-74
2021/09/03 07:15:42;;;;;;;29.15;9.40;;;;;;;;;;5054888;28;20021;-74
2021/09/03 07:18:07;;;;;;;28.80;10.23;;;;;;;;;;5054843;28;20058;-76
2021/09/03 07:20:32;;;;;;;22.17;8.38;;;;;;;;;;5054967;28;20021;-74
2021/09/03 07:23:00;;;;;;;24.13;8.73;;;;;;;;;;5054666;28;20100;-74
2021/09/03 07:25:26;;;;;;;24.52;8.50;;;;;;;;;;5054884;28;20036;-76
2021/09/03 07:27:51;;;;;;;21.90;8.57;;;;;;;;;;5054896;28;20025;-76
2021/09/03 07:30:16;;;;;;;25.65;8.75;;;;;;;;;;5054926;28;20025;-75
2021/09/03 07:32:44;;;;;;;18.92;7.57;;;;;;;;;;5054338;28;20053;-76
2021/09/03 07:35:09;;;;;;;25.00;8.50;;;;;;;;;;5055345;28;20373;-76
2021/09/03 07:37:35;;;;;;;26.08;8.32;;;;;;;;;;5054822;28;20378;-75
2021/09/03 07:40:00;;;;;;;27.95;9.57;;;;;;;;;;5054484;28;20036;-76
2021/09/03 07:42:25;;;;;;;29.27;8.60;;;;;;;;;;5054133;28;20032;-76
2021/09/03 07:44:51;;;;;;;21.85;7.47;;;;;;;;;;5054221;28;20017;-76
2021/09/03 07:47:16;;;;;;;32.78;10.38;;;;;;;;;;5053957;28;20359;-76
2021/09/03 07:49:41;;;;;;;22.90;9.10;;;;;;;;;;5053888;28;20079;-76
2021/09/03 07:52:06;;;;;;;23.60;8.15;;;;;;;;;;5054257;28;20032;-75
2021/09/03 07:54:32;;;;;;;32.33;8.65;;;;;;;;;;5053550;28;20032;-75
2021/09/03 07:56:57;;;;;;;20.90;8.80;;;;;;;;;;5054155;28;20021;-75
2021/09/03 07:59:22;;;;;;;21.10;8.23;;;;;;;;;;5052847;28;20025;-76
2021/09/03 08:01:48;;;;;;;20.10;8.18;;;;;;;;;;5054112;28;20473;-76
2021/09/03 08:04:14;;;;;;;23.90;8.57;;;;;;;;;;5053851;28;20068;-76
2021/09/03 08:06:39;;;;;;;20.17;8.65;;;;;;;;;;5053973;28;20043;-75
2021/09/03 08:09:05;;;;;;;21.00;7.72;;;;;;;;;;5053671;28;20466;-75
2021/09/03 08:11:30;;;;;;;26.10;8.55;;;;;;;;;;5053679;28;20048;-76
2021/09/03 08:13:55;;;;;;;21.80;7.78;;;;;;;;;;5053937;28;20091;-76
2021/09/03 08:16:22;;;;;;;19.73;7.65;;;;;;;;;;5053590;28;20037;-76
2021/09/03 08:18:47;;;;;;;26.42;8.52;;;;;;;;;;5054151;28;20056;-76
2021/09/03 08:21:12;;;;;;;15.48;7.30;;;;;;;;;;5053659;28;20388;-77
2021/09/03 08:23:38;;;;;;;19.83;7.65;;;;;;;;;;5053308;28;20037;-76
2021/09/03 08:26:03;;;;;;;23.70;7.28;;;;;;;;;;5053187;28;20025;-76
2021/09/03 08:28:28;;;;;;;24.70;8.20;;;;;;;;;;5053480;28;20063;-76
2021/09/03 08:30:53;;;;;;;20.40;8.75;;;;;;;;;;5059691;28;20038;-76
2021/09/03 08:33:19;;;;;;;25.08;8.50;;;;;;;;;;5064737;28;20058;-76
2021/09/03 08:35:44;;;;;;;18.85;6.85;;;;;;;;;;5064695;28;20479;-76
2021/09/03 08:38:09;;;;;;;19.65;7.75;;;;;;;;;;5058158;28;20108;-75
2021/09/03 08:40:37;;;;;;;25.98;7.72;;;;;;;;;;5059101;28;20458;-79
2021/09/03 08:43:03;;;;;;;34.00;6.95;;;;;;;;;;5066230;28;20347;-76
2021/09/03 08:45:28;;;;;;;19.20;8.32;;;;;;;;;;5062114;28;20062;-76
2021/09/03 08:47:54;;;;;;;22.98;8.02;;;;;;;;;;5058730;28;20021;-78
2021/09/03 08:50:19;;;;;;;21.65;8.27;;;;;;;;;;5065373;28;20025;-76
2021/09/03 08:52:45;;;;;;;21.40;6.90;;;;;;;;;;5052519;28;20082;-75
2021/09/03 08:55:11;;;;;;;24.02;8.38;;;;;;;;;;5063295;28;20059;-76
2021/09/03 08:57:36;;;;;;;20.65;7.43;;;;;;;;;;5059938;28;20016;-76
2021/09/03 09:00:09;;;;;;;21.17;8.27;;;;;;;;;;5056401;28;20039;-79
2021/09/03 09:02:34;;;;;;;22.65;7.43;;;;;;;;;;5065607;28;20071;-76
2021/09/03 09:04:59;;;;;;;23.48;8.77;;;;;;;;;;5055849;28;20021;-75
2021/09/03 09:07:26;;;;;;;26.83;7.57;;;;;;;;;;5061046;28;20071;-77
2021/09/03 09:09:51;;;;;;;19.58;7.22;;;;;;;;;;5062127;28;20028;-76
2021/09/03 09:12:18;;;;;;;20.23;7.40;;;;;;;;;;5053703;28;20100;-76
2021/09/03 09:15:02;;;;;;;21.98;7.82;;;;;;;;;;5065771;28;20036;-77
2021/09/03 09:17:38;;;;;;;18.23;6.32;;;;;;;;;;5059220;28;20017;-76
2021/09/03 09:20:05;;;;;;;19.27;7.53;;;;;;;;;;5055846;28;20048;-75
2021/09/03 09:22:49;;;;;;;18.95;6.90;;;;;;;;;;5045546;28;20112;-75
2021/09/03 09:25:27;;;;;;;15.82;7.15;;;;;;;;;;5048754;28;20037;-75
2021/09/03 09:27:54;;;;;;;17.83;7.28;;;;;;;;;;5056681;28;20403;-75
2021/09/03 09:30:23;;;;;;;19.25;8.00;;;;;;;;;;5052811;28;20033;-75
2021/09/03 09:33:06;;;;;;;21.45;7.13;;;;;;;;;;5035868;28;20056;-75
2021/09/03 09:35:32;;;;;;;20.90;7.85;;;;;;;;;;5048222;28;20032;-75
2021/09/03 09:37:57;;;;;;;21.85;9.07;;;;;;;;;;5061793;28;20032;-75
2021/09/03 09:40:22;;;;;;;21.05;8.13;;;;;;;;;;5055666;28;20043;-75
2021/09/03 09:42:48;;;;;;;15.93;7.95;;;;;;;;;;5049748;28;20086;-75
2021/09/03 09:45:14;;;;;;;19.98;7.32;;;;;;;;;;5048978;28;20084;-74
2021/09/03 09:47:41;;;;;;;19.10;7.82;;;;;;;;;;5048562;28;20029;-75
2021/09/03 09:50:25;;;;;;;21.17;7.63;;;;;;;;;;5048507;28;20025;-74
2021/09/03 09:52:50;;;;;;;18.67;7.05;;;;;;;;;;5048793;28;20071;-75
2021/09/03 09:55:15;;;;;;;19.25;7.00;;;;;;;;;;5049070;28;20033;-75
2021/09/03 09:57:41;;;;;;;22.17;8.50;;;;;;;;;;5048919;28;20041;-74
2021/09/03 10:00:07;;;;;;;25.67;7.47;;;;;;;;;;5048798;28;20029;-75
2021/09/03 10:02:37;;;;;;;20.70;7.53;;;;;;;;;;5048793;28;20029;-76
2021/09/03 10:05:03;;;;;;;17.30;6.97;;;;;;;;;;5048237;28;20032;-78
2021/09/03 10:07:29;;;;;;;17.25;7.45;;;;;;;;;;5049288;28;20022;-76
2021/09/03 10:09:54;;;;;;;15.23;7.57;;;;;;;;;;5049477;28;20029;-75
2021/09/03 10:12:20;;;;;;;23.27;7.47;;;;;;;;;;5048036;28;20068;-74
2021/09/03 10:14:45;;;;;;;19.95;7.97;;;;;;;;;;5049524;28;20083;-75
2021/09/03 10:17:11;;;;;;;23.23;7.93;;;;;;;;;;5051990;28;20079;-75
2021/09/03 10:19:38;;;;;;;20.55;8.23;;;;;;;;;;5051860;28;20029;-75
2021/09/03 10:22:08;;;;;;;22.75;8.52;;;;;;;;;;5052796;28;20056;-75
2021/09/03 10:24:35;;;;;;;19.25;7.57;;;;;;;;;;5052610;28;20055;-75
2021/09/03 10:27:02;;;;;;;21.05;7.00;;;;;;;;;;5053252;28;20036;-75
2021/09/03 10:29:29;;;;;;;20.65;8.32;;;;;;;;;;5052519;28;20017;-77
2021/09/03 10:32:07;;;;;;;19.92;7.20;;;;;;;;;;5052753;28;20393;-74
2021/09/03 10:34:47;;;;;;;20.98;7.93;;;;;;;;;;5052112;28;20025;-75
2021/09/03 10:37:15;;;;;;;18.15;7.78;;;;;;;;;;5051621;28;20115;-76
2021/09/03 10:39:41;;;;;;;22.15;8.38;;;;;;;;;;5048971;28;20025;-75
2021/09/03 10:42:06;;;;;;;22.33;7.47;;;;;;;;;;5051069;28;20033;-74
2021/09/03 10:44:51;;;;;;;20.38;7.15;;;;;;;;;;5051236;28;20020;-74
2021/09/03 10:47:29;;;;;;;20.13;7.40;;;;;;;;;;5052557;28;20111;-75
2021/09/03 10:49:58;;;;;;;16.17;6.40;;;;;;;;;;5052979;28;20029;-75
2021/09/03 10:52:24;;;;;;;15.82;6.70;;;;;;;;;;5052107;28;20524;-78
2021/09/03 10:54:49;;;;;;;24.08;7.32;;;;;;;;;;5048999;28;20048;-74
2021/09/03 10:57:15;;;;;;;17.52;6.75;;;;;;;;;;5051791;28;20108;-74
2021/09/03 11:00:00;;;;;;;20.35;6.82;;;;;;;;;;5051555;28;20039;-75
2021/09/03 11:02:28;;;;;;;18.63;6.97;;;;;;;;;;5051972;28;20025;-74
2021/09/03 11:05:08;;;;;;;15.80;7.00;;;;;;;;;;5052347;28;20465;-75
2021/09/03 11:07:43;;;;;;;16.48;7.70;;;;;;;;;;5051824;28;20021;-74
2021/09/03 11:10:18;;;;;;;17.83;7.45;;;;;;;;;;5051605;28;20079;-75
2021/09/03 11:12:43;;;;;;;;;;;;;;;;;;5051667;28;20075;-75
2021/09/03 11:15:09;;;;;;;21.07;7.10;;;;;;;;;;5051081;28;19908;-75
2021/09/03 11:17:34;;;;;;;17.63;7.45;;;;;;;;;;5049966;28;20024;-78
2021/09/03 11:20:00;;;;;;;19.15;7.10;;;;;;;;;;5051476;28;20025;-75
2021/09/03 11:22:25;;;;;;;18.27;7.18;;;;;;;;;;5051173;28;20060;-75
2021/09/03 11:24:51;;;;;;;20.55;7.90;;;;;;;;;;5051315;28;20033;-74
2021/09/03 11:27:18;;;;;;;19.00;7.57;;;;;;;;;;5050769;28;20013;-74
2021/09/03 11:29:49;;;;;;;16.88;6.55;;;;;;;;;;5050766;28;20033;-75
2021/09/03 11:32:15;;;;;;;20.45;7.22;;;;;;;;;;5051090;28;20049;-75
2021/09/03 11:34:46;;;;;;;23.48;7.05;;;;;;;;;;5051379;28;20029;-74
2021/09/03 11:37:22;;;;;;;19.50;6.90;;;;;;;;;;5051389;28;20032;-75
2021/09/03 11:39:49;;;;;;;18.38;7.57;;;;;;;;;;5050791;28;20036;-75
2021/09/03 11:42:33;;;;;;;19.75;7.72;;;;;;;;;;5051347;28;20465;-76
2021/09/03 11:45:03;;;;;;;19.63;5.93;;;;;;;;;;5051514;28;20029;-75
2021/09/03 11:47:35;;;;;;;17.45;7.15;;;;;;;;;;5051127;28;20025;-76
2021/09/03 11:50:01;;;;;;;23.42;7.18;;;;;;;;;;5050956;28;20350;-75
2021/09/03 11:52:27;;;;;;;23.80;8.70;;;;;;;;;;5050860;28;20028;-75
2021/09/03 11:54:53;;;;;;;20.92;6.95;;;;;;;;;;5051042;28;20086;-75
2021/09/03 11:57:19;;;;;;;18.05;6.78;;;;;;;;;;5051683;28;20238;-76
2021/09/03 12:00:00;;;;;;;21.10;7.38;;;;;;;;;;5051032;28;20017;-75
2021/09/03 12:02:26;;;;;;;20.65;7.40;;;;;;;;;;5050947;28;20281;-75
2021/09/03 12:04:52;;;;;;;16.92;5.93;;;;;;;;;;5051630;28;20024;-75
2021/09/03 12:07:18;;;;;;;15.82;6.00;;;;;;;;;;5050423;28;20021;-74
2021/09/03 12:09:44;;;;;;;19.83;7.68;;;;;;;;;;5051023;28;20064;-75
2021/09/03 12:12:09;;;;;;;25.70;6.88;;;;;;;;;;5049962;28;20126;-75
2021/09/03 12:14:35;;;;;;;19.63;6.63;;;;;;;;;;5050864;28;20062;-75
2021/09/03 12:17:01;;;;;;;16.55;5.82;;;;;;;;;;5050987;28;20051;-78
2021/09/03 12:19:26;;;;;;;21.52;7.90;;;;;;;;;;5050923;28;20039;-76
2021/09/03 12:21:52;;;;;;;14.25;5.88;;;;;;;;;;5050322;28;20024;-75
2021/09/03 12:24:17;;;;;;;19.80;7.97;;;;;;;;;;5050410;28;20107;-75
2021/09/03 12:26:50;;;;;;;19.23;7.32;;;;;;;;;;5049215;28;20138;-74
2021/09/03 12:29:23;;;;;;;27.33;6.70;;;;;;;;;;5049667;28;20046;-76
2021/09/03 12:32:09;;;;;;;16.08;6.60;;;;;;;;;;5049527;28;20048;-76
2021/09/03 12:34:34;;;;;;;;;;;;;;;;;;5050839;28;20060;-75
2021/09/03 12:37:04;;;;;;;20.45;6.45;;;;;;;;;;5050307;28;19904;-75
2021/09/03 12:39:29;;;;;;;20.73;6.80;;;;;;;;;;5050522;28;20067;-75
2021/09/03 12:41:54;;;;;;;13.20;6.05;;;;;;;;;;5050883;28;20021;-75
2021/09/03 12:44:22;;;;;;;20.92;7.55;;;;;;;;;;5050726;28;20066;-75
2021/09/03 12:46:48;;;;;;;15.63;6.53;;;;;;;;;;5051692;28;20471;-75
2021/09/03 12:49:14;;;;;;;16.75;7.47;;;;;;;;;;5051462;28;20019;-75
2021/09/03 12:51:41;;;;;;;18.38;6.30;;;;;;;;;;5050574;28;20384;-75
2021/09/03 12:54:07;;;;;;;16.77;5.85;;;;;;;;;;5050293;28;20053;-75
2021/09/03 12:56:33;;;;;;;14.48;6.40;;;;;;;;;;5050321;28;20029;-74
2021/09/03 12:58:58;;;;;;;14.68;5.90;;;;;;;;;;5050149;28;20033;-75
2021/09/03 13:01:24;;;;;;;18.98;6.65;;;;;;;;;;5049890;28;20033;-76
2021/09/03 13:03:49;;;;;;;15.43;6.28;;;;;;;;;;5050798;28;20025;-75
2021/09/03 13:06:15;;;;;;;20.73;6.68;;;;;;;;;;5049926;28;20108;-75
2021/09/03 13:08:41;;;;;;;21.83;6.95;;;;;;;;;;5048608;28;20583;-75
2021/09/03 13:11:07;;;;;;;16.15;5.63;;;;;;;;;;5049907;28;20021;-78
2021/09/03 13:13:32;;;;;;;16.17;6.20;;;;;;;;;;5049595;28;20048;-75
2021/09/03 13:15:58;;;;;;;17.00;7.20;;;;;;;;;;5049740;28;21123;-75
2021/09/03 13:18:23;;;;;;;17.02;6.85;;;;;;;;;;5050114;28;20032;-75
2021/09/03 13:20:48;;;;;;;14.77;6.80;;;;;;;;;;5050537;28;20029;-74
2021/09/03 13:23:14;;;;;;;17.15;7.15;;;;;;;;;;5049778;28;20393;-74
2021/09/03 13:25:39;;;;;;;15.48;7.10;;;;;;;;;;5049771;28;20040;-77
2021/09/03 13:28:05;;;;;;;20.45;7.80;;;;;;;;;;5049768;28;20462;-75
2021/09/03 13:30:30;;;;;;;16.75;6.70;;;;;;;;;;5050368;28;20037;-76
2021/09/03 13:32:55;;;;;;;17.55;6.78;;;;;;;;;;5049244;28;20134;-76
2021/09/03 13:35:21;;;;;;;18.00;6.30;;;;;;;;;;5049515;28;20044;-76
2021/09/03 13:37:46;;;;;;;15.30;6.80;;;;;;;;;;5049326;28;20033;-76
2021/09/03 13:40:12;;;;;;;18.95;7.05;;;;;;;;;;5049849;28;20013;-76
2021/09/03 13:42:37;;;;;;;18.98;6.90;;;;;;;;;;5049584;28;20086;-78
2021/09/03 13:45:03;;;;;;;17.35;6.43;;;;;;;;;;5050337;28;20033;-76
2021/09/03 13:47:29;;;;;;;16.85;6.72;;;;;;;;;;5049007;28;20841;-75
2021/09/03 13:49:54;;;;;;;14.30;6.57;;;;;;;;;;5052093;28;20036;-75
2021/09/03 13:52:19;;;;;;;17.88;6.97;;;;;;;;;;5048630;28;20036;-76
2021/09/03 13:54:45;;;;;;;20.38;6.60;;;;;;;;;;5051263;28;20021;-75
2021/09/03 13:57:11;;;;;;;15.77;6.32;;;;;;;;;;5053685;28;20025;-76
2021/09/03 13:59:36;;;;;;;16.88;6.65;;;;;;;;;;5052701;28;20473;-75
2021/09/03 14:02:01;;;;;;;16.23;6.30;;;;;;;;;;5053311;28;20046;-76
2021/09/03 14:04:27;;;;;;;15.82;6.60;;;;;;;;;;5052585;28;20067;-75
2021/09/03 14:06:52;;;;;;;13.98;6.65;;;;;;;;;;5052260;28;20036;-76
2021/09/03 14:09:17;;;;;;;18.55;7.10;;;;;;;;;;5053716;28;20351;-76
2021/09/03 14:11:47;;;;;;;24.15;7.50;;;;;;;;;;5052681;28;20044;-75
2021/09/03 14:14:12;;;;;;;18.23;7.75;;;;;;;;;;5052408;28;20045;-76
2021/09/03 14:16:39;;;;;;;20.52;6.85;;;;;;;;;;5052093;28;20509;-75
2021/09/03 14:19:04;;;;;;;19.75;6.82;;;;;;;;;;5052302;28;20033;-76
2021/09/03 14:21:30;;;;;;;15.55;6.20;;;;;;;;;;5052798;28;20040;-75
2021/09/03 14:23:55;;;;;;;15.50;6.75;;;;;;;;;;5052155;28;20036;-75
2021/09/03 14:26:20;;;;;;;22.77;8.00;;;;;;;;;;5052513;28;20029;-77
2021/09/03 14:28:45;;;;;;;20.52;8.13;;;;;;;;;;5052435;28;20719;-75
2021/09/03 14:31:12;;;;;;;18.50;7.00;;;;;;;;;;5052328;28;20025;-77